Terminal Aerodrome Forecast
Issued by NWS Lubbock, TX

Home | Current Version | Previous Version | Text Only | Print | Product List | Glossary On
Versions: 1 2 3 4 5 6 7 8 9 10 11 12 13 14 15
000
FTUS44 KLUB 051722
TAFLBB
TAF
KLBB 051722Z 0518/0618 17015G20KT P6SM SCT050 SCT200
     FM060300 17012KT P6SM SCT025 BKN200
     FM061200 19015KT P6SM BKN030=

USA.gov is the U.S. government's official web portal to all federal, state and local government web resources and services.